createdAt,value
2022-10-23T00:01:46.173Z,14.21
2022-10-23T00:04:16.101Z,14.38
2022-10-23T00:06:46.003Z,14.34
2022-10-23T00:09:16.174Z,14.41
2022-10-23T00:11:47.414Z,14.41
2022-10-23T00:14:16.007Z,14.25
2022-10-23T00:16:43.708Z,14.42
2022-10-23T00:19:11.632Z,14.59
2022-10-23T00:21:39.734Z,14.56
2022-10-23T00:26:43.099Z,14.27
2022-10-23T00:29:11.708Z,14.29
2022-10-23T00:31:39.722Z,13.97
2022-10-23T00:34:08.487Z,13.69
2022-10-23T00:36:36.583Z,13.49
2022-10-23T00:39:05.008Z,13.96
2022-10-23T00:41:34.177Z,14.06
2022-10-23T00:44:08.883Z,14.09
2022-10-23T00:46:37.847Z,14.18
2022-10-23T00:49:06.889Z,14.01
2022-10-23T00:51:39.538Z,14.06
2022-10-23T00:54:25.008Z,14.05
2022-10-23T00:56:57.176Z,13.82
2022-10-23T00:59:25.125Z,13.75
2022-10-23T01:01:53.074Z,14.00
2022-10-23T01:04:21.293Z,14.16
2022-10-23T01:07:00.377Z,14.20
2022-10-23T01:09:32.638Z,14.52
2022-10-23T01:12:11.323Z,14.35
2022-10-23T01:14:45.733Z,14.19
2022-10-23T01:17:15.139Z,14.64
2022-10-23T01:19:52.658Z,14.48
2022-10-23T01:22:42.282Z,13.98
2022-10-23T01:25:24.439Z,14.10
2022-10-23T01:27:57.162Z,13.85
2022-10-23T01:30:24.946Z,13.83
2022-10-23T01:32:57.648Z,13.83
2022-10-23T01:35:29.336Z,13.80
2022-10-23T01:38:07.281Z,14.12
2022-10-23T01:40:39.388Z,14.50
2022-10-23T01:43:14.069Z,14.72
2022-10-23T01:45:45.149Z,14.45
2022-10-23T01:48:22.777Z,14.74
2022-10-23T01:50:53.690Z,14.44
2022-10-23T01:53:23.242Z,14.15
2022-10-23T01:55:52.037Z,13.99
2022-10-23T01:58:27.376Z,13.85
2022-10-23T02:01:00.190Z,14.05
2022-10-23T02:03:32.006Z,14.18
2022-10-23T02:06:00.219Z,14.02
2022-10-23T02:08:28.120Z,13.86
2022-10-23T02:11:01.483Z,13.88
2022-10-23T02:13:37.369Z,14.01
2022-10-23T02:16:15.312Z,14.02
2022-10-23T02:18:52.109Z,14.02
2022-10-23T02:21:25.811Z,14.15
2022-10-23T02:23:58.730Z,13.87
2022-10-23T02:26:28.995Z,13.79
2022-10-23T02:29:02.826Z,13.82
2022-10-23T02:31:32.428Z,13.63
2022-10-23T02:34:00.177Z,13.42
2022-10-23T02:36:27.950Z,13.41
2022-10-23T02:38:55.904Z,13.42
2022-10-23T02:41:38.203Z,13.63
2022-10-23T02:44:29.648Z,13.52
2022-10-23T02:47:21.156Z,13.41
2022-10-23T02:49:58.399Z,13.61
2022-10-23T02:52:32.584Z,13.42
2022-10-23T02:55:15.219Z,13.27
2022-10-23T02:57:56.028Z,13.16
2022-10-23T03:00:26.041Z,13.34
2022-10-23T03:02:58.134Z,13.45
2022-10-23T03:05:31.383Z,13.13
2022-10-23T03:07:59.453Z,13.15
2022-10-23T03:10:27.222Z,13.20
2022-10-23T03:12:54.981Z,13.08
2022-10-23T03:15:22.763Z,13.28
2022-10-23T03:17:53.506Z,13.39
2022-10-23T03:20:22.592Z,13.28
2022-10-23T03:22:50.330Z,13.65
2022-10-23T03:25:18.305Z,13.62
2022-10-23T03:27:46.601Z,13.40
2022-10-23T03:30:17.002Z,13.48
2022-10-23T03:32:48.351Z,13.40
2022-10-23T03:35:17.630Z,13.44
2022-10-23T03:37:45.541Z,13.28
2022-10-23T03:40:13.693Z,13.51
2022-10-23T03:42:41.386Z,13.54
2022-10-23T03:45:11.934Z,13.48
2022-10-23T03:47:41.426Z,13.60
2022-10-23T03:50:10.894Z,13.66
2022-10-23T03:52:40.543Z,13.59
2022-10-23T03:55:09.462Z,13.70
2022-10-23T03:57:37.776Z,13.78
2022-10-23T04:00:08.659Z,13.82
2022-10-23T04:02:44.309Z,13.74
2022-10-23T04:05:12.973Z,14.00
2022-10-23T04:07:45.877Z,14.06
2022-10-23T04:10:13.593Z,14.21
2022-10-23T04:12:41.574Z,14.32
2022-10-23T04:15:10.252Z,14.31
2022-10-23T04:17:38.001Z,13.91
2022-10-23T04:20:06.417Z,13.91
2022-10-23T04:22:34.078Z,13.89
2022-10-23T04:25:03.347Z,13.67
2022-10-23T04:27:34.342Z,13.73
2022-10-23T04:30:03.638Z,13.96
2022-10-23T04:32:32.261Z,13.89
2022-10-23T04:34:59.951Z,13.45
2022-10-23T04:37:28.014Z,13.82
2022-10-23T04:39:55.775Z,13.54
2022-10-23T04:42:24.825Z,13.85
2022-10-23T04:44:52.727Z,13.85
2022-10-23T04:47:20.558Z,13.84
2022-10-23T04:49:57.198Z,13.74
2022-10-23T04:52:45.291Z,13.91
2022-10-23T04:55:31.756Z,13.99
2022-10-23T04:58:12.725Z,13.59
2022-10-23T05:00:40.463Z,13.77
2022-10-23T05:03:08.772Z,13.53
2022-10-23T05:05:40.836Z,13.30
2022-10-23T05:08:25.040Z,13.47
2022-10-23T05:11:19.220Z,13.34
2022-10-23T05:13:51.125Z,13.25
2022-10-23T05:16:30.650Z,13.15
2022-10-23T05:18:59.811Z,12.92
2022-10-23T05:21:33.156Z,13.07
2022-10-23T05:24:02.007Z,13.11
2022-10-23T05:26:30.052Z,13.24
2022-10-23T05:28:59.561Z,13.35
2022-10-23T05:31:27.469Z,13.60
2022-10-23T05:34:02.491Z,13.71
2022-10-23T05:36:30.733Z,13.51
2022-10-23T05:38:59.218Z,13.52
2022-10-23T05:41:27.668Z,13.09
2022-10-23T05:44:00.210Z,12.98
2022-10-23T05:46:50.457Z,13.07
2022-10-23T05:49:41.214Z,13.25
2022-10-23T05:52:12.201Z,13.16
2022-10-23T05:54:47.481Z,13.11
2022-10-23T05:57:22.244Z,13.04
2022-10-23T05:59:53.599Z,13.11
2022-10-23T06:02:24.200Z,13.22
2022-10-23T06:05:02.007Z,13.42
2022-10-23T06:07:49.410Z,13.39
2022-10-23T06:10:18.958Z,13.27
2022-10-23T06:12:48.918Z,13.37
2022-10-23T06:15:20.059Z,13.66
2022-10-23T06:18:01.869Z,13.29
2022-10-23T06:20:32.136Z,13.17
2022-10-23T06:23:09.459Z,13.05
2022-10-23T06:25:59.983Z,12.93
2022-10-23T06:28:36.175Z,12.97
2022-10-23T06:31:07.101Z,12.69
2022-10-23T06:33:35.030Z,12.74
2022-10-23T06:36:10.210Z,12.82
2022-10-23T06:38:40.763Z,12.97
2022-10-23T06:41:14.034Z,13.10
2022-10-23T06:43:41.962Z,13.17
2022-10-23T06:46:49.353Z,12.97
2022-10-23T06:49:35.766Z,13.08
2022-10-23T06:52:04.436Z,13.01
2022-10-23T06:54:32.441Z,13.18
2022-10-23T06:57:20.105Z,13.59
2022-10-23T06:59:48.043Z,13.50
2022-10-23T07:02:18.393Z,13.85
2022-10-23T07:04:46.204Z,14.11
2022-10-23T07:07:19.073Z,14.13
2022-10-23T07:09:49.469Z,14.55
2022-10-23T07:12:26.452Z,14.73
2022-10-23T07:15:09.914Z,14.95
2022-10-23T07:17:39.271Z,14.73
2022-10-23T07:20:07.852Z,14.71
2022-10-23T07:22:36.233Z,15.14
2022-10-23T07:25:09.366Z,15.37
2022-10-23T07:27:40.751Z,15.37
2022-10-23T07:30:11.659Z,15.48
2022-10-23T07:32:47.260Z,15.13
2022-10-23T07:35:38.582Z,15.17
2022-10-23T07:38:15.732Z,15.75
2022-10-23T07:40:47.331Z,16.00
2022-10-23T07:43:18.443Z,16.20
2022-10-23T07:45:48.374Z,15.67
2022-10-23T07:48:43.697Z,16.07
2022-10-23T07:51:14.995Z,16.13
2022-10-23T07:53:46.211Z,16.61
2022-10-23T07:56:42.428Z,16.64
2022-10-23T07:59:26.141Z,16.43
2022-10-23T08:01:56.720Z,16.69
2022-10-23T08:04:34.414Z,16.93
2022-10-23T08:07:13.546Z,17.06
2022-10-23T08:09:44.134Z,17.00
2022-10-23T08:12:12.099Z,17.09
2022-10-23T08:14:40.374Z,17.17
2022-10-23T08:17:09.698Z,17.05
2022-10-23T08:20:13.588Z,17.50
2022-10-23T08:22:43.485Z,17.50
2022-10-23T08:25:13.472Z,17.99
2022-10-23T08:27:41.437Z,18.53
2022-10-23T08:30:10.884Z,18.27
2022-10-23T08:32:38.714Z,18.37
2022-10-23T08:35:07.882Z,18.47
2022-10-23T08:37:38.764Z,18.57
2022-10-23T08:40:07.808Z,18.59
2022-10-23T08:43:00.202Z,18.73
2022-10-23T08:45:34.243Z,18.96
2022-10-23T08:48:23.516Z,19.27
2022-10-23T08:51:30.086Z,18.93
2022-10-23T08:54:03.871Z,19.04
2022-10-23T08:56:35.397Z,19.21
2022-10-23T08:59:08.823Z,20.11
2022-10-23T09:01:41.800Z,20.60
2022-10-23T09:04:12.419Z,21.19
2022-10-23T09:06:46.454Z,21.63
2022-10-23T09:09:44.988Z,21.98
2022-10-23T09:12:15.109Z,22.61
2022-10-23T09:15:05.376Z,22.63
2022-10-23T09:17:35.610Z,22.68
2022-10-23T09:20:17.229Z,22.84
2022-10-23T09:22:46.024Z,22.84
2022-10-23T09:25:20.549Z,23.10
2022-10-23T09:27:53.182Z,23.83
2022-10-23T09:30:33.514Z,24.07
2022-10-23T09:33:02.459Z,23.97
2022-10-23T09:35:31.037Z,23.74
2022-10-23T09:37:58.768Z,23.93
2022-10-23T09:40:33.343Z,24.07
2022-10-23T09:43:04.681Z,24.03
2022-10-23T09:45:34.509Z,23.38
2022-10-23T09:48:09.979Z,23.01
2022-10-23T09:50:37.849Z,22.34
2022-10-23T09:53:05.631Z,22.91
2022-10-23T09:55:34.756Z,23.41
2022-10-23T09:58:02.712Z,23.06
2022-10-23T10:00:30.605Z,23.26
2022-10-23T10:03:00.795Z,24.07
2022-10-23T10:05:59.528Z,24.27
2022-10-23T10:08:36.263Z,22.56
2022-10-23T10:11:13.421Z,23.45
2022-10-23T10:14:31.702Z,23.02
2022-10-23T10:17:04.548Z,21.79
2022-10-23T10:19:44.181Z,23.03
2022-10-23T10:22:26.760Z,22.13
2022-10-23T10:25:03.978Z,23.38
2022-10-23T10:27:46.167Z,24.09
2022-10-23T10:30:16.929Z,24.64
2022-10-23T10:32:51.209Z,24.78
2022-10-23T10:35:29.940Z,24.44
2022-10-23T10:38:16.097Z,24.00
2022-10-23T10:40:52.096Z,23.32
2022-10-23T10:43:30.313Z,22.93
2022-10-23T10:46:05.282Z,23.26
2022-10-23T10:48:42.348Z,23.43
2022-10-23T10:51:27.041Z,24.01
2022-10-23T10:54:09.597Z,23.56
2022-10-23T10:56:41.713Z,24.13
2022-10-23T10:59:18.295Z,23.00
2022-10-23T11:01:52.921Z,22.70
2022-10-23T11:04:32.976Z,22.38
2022-10-23T11:07:06.611Z,22.61
2022-10-23T11:09:34.676Z,22.89
2022-10-23T11:12:02.460Z,22.99
2022-10-23T11:14:33.992Z,22.55
2022-10-23T11:17:06.205Z,22.30
2022-10-23T11:19:41.519Z,22.29
2022-10-23T11:22:17.250Z,22.42
2022-10-23T11:25:05.981Z,22.54
2022-10-23T11:27:47.038Z,22.66
2022-10-23T11:30:24.736Z,22.56
2022-10-23T11:33:42.592Z,22.60
2022-10-23T11:36:17.254Z,22.66
2022-10-23T11:38:48.655Z,22.68
2022-10-23T11:41:25.388Z,23.16
2022-10-23T11:43:57.132Z,22.94
2022-10-23T11:46:35.243Z,23.33
2022-10-23T11:49:06.050Z,23.53
2022-10-23T11:51:35.844Z,23.40
2022-10-23T11:54:24.534Z,23.32
2022-10-23T11:57:08.051Z,23.27
2022-10-23T11:59:50.951Z,23.53
2022-10-23T12:02:28.798Z,23.94
2022-10-23T12:04:57.039Z,24.37
2022-10-23T12:07:28.266Z,24.47
2022-10-23T12:09:58.952Z,24.54
2022-10-23T12:12:34.157Z,24.28
2022-10-23T12:15:19.847Z,23.67
2022-10-23T12:17:49.947Z,23.57
2022-10-23T12:20:37.766Z,23.52
2022-10-23T12:23:45.897Z,23.18
2022-10-23T12:26:29.923Z,23.37
2022-10-23T12:29:05.180Z,23.31
2022-10-23T12:31:48.035Z,23.43
2022-10-23T12:34:34.318Z,23.24
2022-10-23T12:37:38.317Z,23.85
2022-10-23T12:40:09.014Z,24.29
2022-10-23T12:42:40.639Z,24.77
2022-10-23T12:45:19.328Z,24.83
2022-10-23T12:47:49.720Z,25.31
2022-10-23T12:50:22.355Z,25.40
2022-10-23T12:52:54.896Z,25.23
2022-10-23T12:55:23.757Z,25.37
2022-10-23T12:57:52.089Z,25.57
2022-10-23T13:00:22.237Z,25.75
2022-10-23T13:02:58.779Z,26.34
2022-10-23T13:05:28.930Z,26.89
2022-10-23T13:07:59.324Z,26.55
2022-10-23T13:10:40.363Z,27.05
2022-10-23T13:13:13.795Z,26.98
2022-10-23T13:15:48.074Z,27.16
2022-10-23T13:18:17.703Z,26.92
2022-10-23T13:21:03.370Z,27.69
2022-10-23T13:23:34.161Z,26.91
2022-10-23T13:26:03.180Z,27.65
2022-10-23T13:28:33.781Z,28.00
2022-10-23T13:31:08.690Z,27.47
2022-10-23T13:33:38.749Z,26.93
2022-10-23T13:36:22.774Z,26.15
2022-10-23T13:39:01.186Z,26.39
2022-10-23T13:41:36.850Z,26.67
2022-10-23T13:44:11.373Z,25.99
2022-10-23T13:46:39.049Z,25.39
2022-10-23T13:49:06.765Z,25.15
2022-10-23T13:51:42.739Z,25.34
2022-10-23T13:54:15.544Z,24.88
2022-10-23T13:56:43.511Z,24.77
2022-10-23T13:59:12.280Z,24.23
2022-10-23T14:01:40.502Z,23.75
2022-10-23T14:04:09.277Z,23.43
2022-10-23T14:06:39.007Z,23.05
2022-10-23T14:09:07.847Z,22.66
2022-10-23T14:11:35.655Z,22.48
2022-10-23T14:14:03.598Z,22.69
2022-10-23T14:16:31.424Z,22.37
2022-10-23T14:18:59.294Z,22.25
2022-10-23T14:21:27.081Z,22.44
2022-10-23T14:23:56.311Z,22.32
2022-10-23T14:26:27.450Z,22.15
2022-10-23T14:28:56.888Z,22.01
2022-10-23T14:31:26.523Z,22.23
2022-10-23T14:33:56.359Z,21.84
2022-10-23T14:36:24.332Z,22.03
2022-10-23T14:38:58.072Z,22.02
2022-10-23T14:41:27.562Z,21.98
2022-10-23T14:43:55.844Z,21.84
2022-10-23T14:46:25.641Z,21.99
2022-10-23T14:48:56.408Z,22.15
2022-10-23T14:51:28.683Z,22.67
2022-10-23T14:54:01.736Z,22.88
2022-10-23T14:56:30.872Z,22.19
2022-10-23T14:59:02.602Z,21.99
2022-10-23T15:01:30.575Z,21.47
2022-10-23T15:03:58.536Z,21.59
2022-10-23T15:06:26.761Z,21.59
2022-10-23T15:08:55.682Z,22.32
2022-10-23T15:11:25.747Z,22.49
2022-10-23T15:13:54.631Z,22.33
2022-10-23T15:16:23.994Z,22.24
2022-10-23T15:18:52.804Z,21.92
2022-10-23T15:21:21.052Z,21.92
2022-10-23T15:23:49.261Z,22.20
2022-10-23T15:26:21.325Z,21.69
2022-10-23T15:28:54.168Z,21.77
2022-10-23T15:31:40.960Z,21.57
2022-10-23T15:34:09.941Z,21.37
2022-10-23T15:36:38.262Z,21.63
2022-10-23T15:39:08.916Z,21.43
2022-10-23T15:41:38.511Z,21.33
2022-10-23T15:44:10.333Z,21.43
2022-10-23T15:46:38.343Z,21.70
2022-10-23T15:49:08.351Z,21.80
2022-10-23T15:51:37.535Z,21.58
2022-10-23T15:54:05.748Z,21.35
2022-10-23T15:56:33.701Z,20.79
2022-10-23T15:59:01.363Z,20.63
2022-10-23T16:01:30.621Z,20.84
2022-10-23T16:03:58.394Z,20.72
2022-10-23T16:06:26.270Z,21.08
2022-10-23T16:11:28.968Z,21.45
2022-10-23T16:13:57.037Z,21.13
2022-10-23T16:16:25.369Z,20.79
2022-10-23T16:18:54.691Z,21.08
2022-10-23T16:21:24.445Z,21.14
2022-10-23T16:23:53.429Z,21.15
2022-10-23T16:26:21.608Z,20.98
2022-10-23T16:28:53.814Z,21.05
2022-10-23T16:31:24.054Z,20.72
2022-10-23T16:33:52.734Z,20.39
2022-10-23T16:36:22.290Z,20.29
2022-10-23T16:39:21.153Z,19.70
2022-10-23T16:42:08.004Z,19.52
2022-10-23T16:44:52.483Z,19.51
2022-10-23T16:47:20.202Z,19.33
2022-10-23T16:49:47.921Z,19.33
2022-10-23T16:52:17.097Z,19.31
2022-10-23T16:54:44.849Z,19.21
2022-10-23T16:57:12.571Z,19.25
2022-10-23T16:59:40.311Z,19.39
2022-10-23T17:02:08.169Z,19.91
2022-10-23T17:04:37.196Z,20.16
2022-10-23T17:07:04.939Z,20.11
2022-10-23T17:09:35.679Z,19.77
2022-10-23T17:12:03.415Z,20.00
2022-10-23T17:14:31.272Z,19.80
2022-10-23T17:17:01.151Z,19.60
2022-10-23T17:19:46.961Z,19.27
2022-10-23T17:22:15.313Z,18.88
2022-10-23T17:24:47.475Z,19.63
2022-10-23T17:27:18.354Z,19.48
2022-10-23T17:29:46.118Z,19.38
2022-10-23T17:32:13.981Z,18.88
2022-10-23T17:34:44.571Z,19.02
2022-10-23T17:37:13.244Z,19.40
2022-10-23T17:39:42.045Z,19.36
2022-10-23T17:42:11.441Z,19.82
2022-10-23T17:44:39.319Z,19.53
2022-10-23T17:47:07.054Z,20.09
2022-10-23T17:49:34.793Z,20.07
2022-10-23T17:52:02.834Z,20.54
2022-10-23T17:54:30.601Z,20.56
2022-10-23T17:56:58.339Z,20.66
2022-10-23T17:59:27.488Z,20.83
2022-10-23T18:01:58.118Z,19.78
2022-10-23T18:04:26.014Z,20.05
2022-10-23T18:06:54.660Z,20.19
2022-10-23T18:09:23.473Z,20.09
2022-10-23T18:11:51.658Z,19.72
2022-10-23T18:14:21.557Z,19.10
2022-10-23T18:16:50.775Z,18.86
2022-10-23T18:19:19.346Z,18.53
2022-10-23T18:21:47.076Z,18.26
2022-10-23T18:24:15.468Z,18.69
2022-10-23T18:26:43.370Z,19.00
2022-10-23T18:29:12.360Z,18.61
2022-10-23T18:31:40.447Z,18.83
2022-10-23T18:34:16.684Z,19.05
2022-10-23T18:36:44.444Z,19.06
2022-10-23T18:39:16.077Z,19.12
2022-10-23T18:41:46.159Z,19.14
2022-10-23T18:44:16.675Z,18.97
2022-10-23T18:46:44.974Z,19.19
2022-10-23T18:49:14.410Z,19.15
2022-10-23T18:51:43.588Z,19.23
2022-10-23T18:54:13.551Z,19.05
2022-10-23T18:56:41.723Z,19.24
2022-10-23T18:59:13.254Z,18.79
2022-10-23T19:01:41.518Z,18.70
2022-10-23T19:04:11.624Z,18.70
2022-10-23T19:06:40.838Z,18.75
2022-10-23T19:09:13.662Z,18.71
2022-10-23T19:11:42.301Z,19.04
2022-10-23T19:14:10.546Z,18.96
2022-10-23T19:16:40.918Z,18.73
2022-10-23T19:19:13.734Z,18.54
2022-10-23T19:21:43.608Z,18.43
2022-10-23T19:24:16.881Z,18.49
2022-10-23T19:26:45.363Z,18.51
2022-10-23T19:29:16.962Z,18.44
2022-10-23T19:31:48.902Z,18.74
2022-10-23T19:34:19.674Z,19.76
2022-10-23T19:36:49.269Z,19.61
2022-10-23T19:39:17.256Z,19.72
2022-10-23T19:41:45.038Z,19.33
2022-10-23T19:44:14.501Z,19.13
2022-10-23T19:46:44.633Z,18.57
2022-10-23T19:49:12.483Z,18.68
2022-10-23T19:51:40.414Z,18.36
2022-10-23T19:54:10.526Z,18.06
2022-10-23T19:56:38.767Z,18.35
2022-10-23T19:59:06.950Z,18.46
2022-10-23T20:01:35.993Z,18.53
2022-10-23T20:04:03.875Z,18.44
2022-10-23T20:06:34.507Z,18.08
2022-10-23T20:09:02.396Z,18.20
2022-10-23T20:11:32.588Z,18.64
2022-10-23T20:14:00.852Z,18.74
2022-10-23T20:16:30.457Z,18.65
2022-10-23T20:18:58.958Z,18.48
2022-10-23T20:21:26.710Z,18.70
2022-10-23T20:23:54.459Z,19.07
2022-10-23T20:26:22.532Z,18.61
2022-10-23T20:28:53.751Z,18.46
2022-10-23T20:31:25.240Z,18.89
2022-10-23T20:33:53.488Z,17.90
2022-10-23T20:36:27.625Z,18.86
2022-10-23T20:38:55.476Z,18.94
2022-10-23T20:41:24.988Z,19.47
2022-10-23T20:43:55.442Z,18.90
2022-10-23T20:46:23.786Z,19.20
2022-10-23T20:48:51.832Z,19.31
2022-10-23T20:51:21.896Z,19.49
2022-10-23T20:53:50.761Z,18.99
2022-10-23T20:56:20.103Z,19.43
2022-10-23T20:58:48.124Z,19.30
2022-10-23T21:01:18.521Z,19.40
2022-10-23T21:03:51.120Z,19.36
2022-10-23T21:06:19.894Z,19.35
2022-10-23T21:08:47.773Z,19.15
2022-10-23T21:11:18.074Z,19.34
2022-10-23T21:13:46.098Z,19.19
2022-10-23T21:16:15.094Z,19.41
2022-10-23T21:18:46.648Z,19.46
2022-10-23T21:21:16.975Z,19.43
2022-10-23T21:23:44.799Z,20.00
2022-10-23T21:26:12.701Z,19.05
2022-10-23T21:28:47.278Z,19.27
2022-10-23T21:31:24.864Z,19.77
2022-10-23T21:33:54.059Z,19.63
2022-10-23T21:36:23.945Z,19.89
2022-10-23T21:38:54.203Z,19.83
2022-10-23T21:41:24.016Z,19.91
2022-10-23T21:43:53.789Z,19.39
2022-10-23T21:46:22.795Z,19.29
2022-10-23T21:48:50.827Z,18.90
2022-10-23T21:51:23.253Z,18.68
2022-10-23T21:53:51.377Z,19.00
2022-10-23T21:56:31.874Z,18.68
2022-10-23T21:59:01.408Z,18.91
2022-10-23T22:01:29.594Z,18.75
2022-10-23T22:03:57.855Z,18.74
2022-10-23T22:06:29.745Z,18.83
2022-10-23T22:08:59.156Z,18.82
2022-10-23T22:11:28.181Z,18.77
2022-10-23T22:13:56.134Z,18.71
2022-10-23T22:16:23.956Z,18.85
2022-10-23T22:18:51.799Z,18.81
2022-10-23T22:21:22.211Z,19.04
2022-10-23T22:23:52.011Z,18.94
2022-10-23T22:26:24.556Z,19.05
2022-10-23T22:28:53.533Z,19.16
2022-10-23T22:31:23.717Z,19.36
2022-10-23T22:33:51.499Z,19.59
2022-10-23T22:36:19.675Z,19.33
2022-10-23T22:38:47.805Z,19.71
2022-10-23T22:41:17.464Z,19.79
2022-10-23T22:43:45.274Z,19.50
2022-10-23T22:46:15.743Z,20.14
2022-10-23T22:48:43.697Z,19.09
2022-10-23T22:51:12.742Z,19.53
2022-10-23T22:53:40.464Z,18.96
2022-10-23T22:56:10.093Z,18.85
2022-10-23T22:58:39.361Z,18.76
2022-10-23T23:01:10.083Z,19.12
2022-10-23T23:03:38.478Z,18.77
2022-10-23T23:06:07.741Z,18.70
2022-10-23T23:08:36.395Z,18.58
2022-10-23T23:11:04.423Z,18.76
2022-10-23T23:13:32.393Z,19.06
2022-10-23T23:16:02.007Z,18.81
2022-10-23T23:18:29.728Z,18.94
2022-10-23T23:21:01.646Z,18.69
2022-10-23T23:23:29.752Z,18.63
2022-10-23T23:25:58.201Z,18.74
2022-10-23T23:28:25.947Z,18.52
2022-10-23T23:31:05.378Z,18.70
2022-10-23T23:33:33.062Z,18.58
2022-10-23T23:36:00.964Z,18.55
2022-10-23T23:38:28.771Z,18.81
2022-10-23T23:40:56.434Z,18.84
2022-10-23T23:43:24.261Z,18.27
2022-10-23T23:45:51.985Z,18.56
2022-10-23T23:48:21.118Z,18.39
2022-10-23T23:50:48.807Z,18.42
2022-10-23T23:53:16.535Z,18.16
2022-10-23T23:58:17.096Z,18.25
